Map

Track Data

SID SEASON NUMBER BASIN SUBBASIN NAME ISO_TIME NATURE LAT LON WMO_WIND WMO_PRES WMO_AGENCY TRACK_TYPE DIST2LAND LANDFALL IFLAG USA_AGENCY USA_ATCF_ID USA_LAT USA_LON USA_RECORD USA_STATUS USA_WIND USA_PRES USA_SSHS USA_R34_NE USA_R34_SE USA_R34_SW USA_R34_NW USA_R50_NE USA_R50_SE USA_R50_SW USA_R50_NW USA_R64_NE USA_R64_SE USA_R64_SW USA_R64_NW USA_POCI USA_ROCI USA_RMW USA_EYE TOKYO_LAT TOKYO_LON TOKYO_GRADE TOKYO_WIND TOKYO_PRES TOKYO_R50_DIR TOKYO_R50_LONG TOKYO_R50_SHORT TOKYO_R30_DIR TOKYO_R30_LONG TOKYO_R30_SHORT TOKYO_LAND CMA_LAT CMA_LON CMA_CAT CMA_WIND CMA_PRES HKO_LAT HKO_LON HKO_CAT HKO_WIND HKO_PRES NEWDELHI_LAT NEWDELHI_LON NEWDELHI_GRADE NEWDELHI_WIND NEWDELHI_PRES NEWDELHI_CI NEWDELHI_DP NEWDELHI_POCI REUNION_LAT REUNION_LON REUNION_TYPE REUNION_WIND REUNION_PRES REUNION_TNUM REUNION_CI REUNION_RMW REUNION_R34_NE REUNION_R34_SE REUNION_R34_SW REUNION_R34_NW REUNION_R50_NE REUNION_R50_SE REUNION_R50_SW REUNION_R50_NW REUNION_R64_NE REUNION_R64_SE REUNION_R64_SW REUNION_R64_NW BOM_LAT BOM_LON BOM_TYPE BOM_WIND BOM_PRES BOM_TNUM BOM_CI BOM_RMW BOM_R34_NE BOM_R34_SE BOM_R34_SW BOM_R34_NW BOM_R50_NE BOM_R50_SE BOM_R50_SW BOM_R50_NW BOM_R64_NE BOM_R64_SE BOM_R64_SW BOM_R64_NW BOM_ROCI BOM_POCI BOM_EYE BOM_POS_METHOD BOM_PRES_METHOD NADI_LAT NADI_LON NADI_CAT NADI_WIND NADI_PRES WELLINGTON_LAT WELLINGTON_LON WELLINGTON_WIND WELLINGTON_PRES DS824_LAT DS824_LON DS824_STAGE DS824_WIND DS824_PRES TD9636_LAT TD9636_LON TD9636_STAGE TD9636_WIND TD9636_PRES TD9635_LAT TD9635_LON TD9635_WIND TD9635_PRES TD9635_ROCI NEUMANN_LAT NEUMANN_LON NEUMANN_CLASS NEUMANN_WIND NEUMANN_PRES MLC_LAT MLC_LON MLC_CLASS MLC_WIND MLC_PRES USA_GUST BOM_GUST BOM_GUST_PER REUNION_GUST REUNION_GUST_PER USA_SEAHGT USA_SEARAD_NE USA_SEARAD_SE USA_SEARAD_SW USA_SEARAD_NW STORM_SPEED STORM_DIR
1956324N25313 1956 114 NA NA NOT_NAMED 1956-11-19 00:00:00 TS 25.0000 -47.0000 25 hurdat_atl main 2055 2045 O_____________ hurdat_atl AL121956 25.0000 -47.0000 TD 25 -1 2 271
1956324N25313 1956 114 NA NA NOT_NAMED 1956-11-19 03:00:00 TS 25.0025 -47.1300 main 2045 2026 P_____________ AL121956 25.0025 -47.1300 TD 27 -1 3 270
1956324N25313 1956 114 NA NA NOT_NAMED 1956-11-19 06:00:00 TS 25.0000 -47.3000 30 hurdat_atl main 2026 2007 O_____________ hurdat_atl AL121956 25.0000 -47.3000 TD 30 -1 4 268
1956324N25313 1956 114 NA NA NOT_NAMED 1956-11-19 09:00:00 TS 24.9925 -47.5350 main 2007 1978 P_____________ AL121956 24.9925 -47.5350 TD 32 -1 5 270
1956324N25313 1956 114 NA NA NOT_NAMED 1956-11-19 12:00:00 TS 25.0000 -47.8000 35 hurdat_atl main 1978 1959 O_____________ hurdat_atl AL121956 25.0000 -47.8000 TS 35 0 5 275
1956324N25313 1956 114 NA NA NOT_NAMED 1956-11-19 15:00:00 TS 25.0350 -48.0575 main 1950 1934 P_____________ AL121956 25.0350 -48.0575 TS 37 0 5 282
1956324N25313 1956 114 NA NA NOT_NAMED 1956-11-19 18:00:00 TS 25.1000 -48.3000 40 hurdat_atl main 1934 1919 O_____________ hurdat_atl AL121956 25.1000 -48.3000 TS 40 0 4 291
1956324N25313 1956 114 NA NA NOT_NAMED 1956-11-19 21:00:00 TS 25.1924 -48.5075 main 1919 1904 P_____________ AL121956 25.1924 -48.5075 TS 40 0 4 299
1956324N25313 1956 114 NA NA NOT_NAMED 1956-11-20 00:00:00 TS 25.3000 -48.7000 40 hurdat_atl main 1904 1889 O_____________ hurdat_atl AL121956 25.3000 -48.7000 TS 40 0 4 299
1956324N25313 1956 114 NA NA NOT_NAMED 1956-11-20 03:00:00 TS 25.4076 -48.9374 main 1889 1875 P_____________ AL121956 25.4076 -48.9374 TS 40 0 4 299
1956324N25313 1956 114 NA NA NOT_NAMED 1956-11-20 06:00:00 TS 25.5000 -49.1000 40 hurdat_atl main 1875 1875 O_____________ hurdat_atl AL121956 25.5000 -49.1000 TS 40 0 2 320
1956324N25313 1956 114 NA NA NOT_NAMED 1956-11-20 09:00:00 TS 25.5874 -49.1026 main 1879 1879 P_____________ AL121956 25.5874 -49.1026 TS 40 0 1 40
1956324N25313 1956 114 NA NA NOT_NAMED 1956-11-20 12:00:00 TS 25.6000 -49.0000 40 hurdat_atl main 1888 1888 O_____________ hurdat_atl AL121956 25.6000 -49.0000 TS 40 0 3 113
1956324N25313 1956 114 NA NA NOT_NAMED 1956-11-20 15:00:00 TS 25.4801 -48.8197 main 1903 1899 P_____________ AL121956 25.4801 -48.8197 TS 40 0 4 138
1956324N25313 1956 114 NA NA NOT_NAMED 1956-11-20 18:00:00 TS 25.3000 -48.7000 40 hurdat_atl main 1904 1887 O_____________ hurdat_atl AL121956 25.3000 -48.7000 TS 40 0 4 173
1956324N25313 1956 114 NA NA NOT_NAMED 1956-11-20 21:00:00 TS 25.1199 -48.7752 main 1887 1864 P_____________ AL121956 25.1199 -48.7752 TS 37 0 4 222
1956324N25313 1956 114 NA NA NOT_NAMED 1956-11-21 00:00:00 TS 25.0000 -49.0000 35 hurdat_atl main 1864 1836 O_____________ hurdat_atl AL121956 25.0000 -49.0000 TS 35 0 5 256
1956324N25313 1956 114 NA NA NOT_NAMED 1956-11-21 03:00:00 TS 24.9975 -49.3126 main 1836 1802 P_____________ AL121956 24.9975 -49.3126 TS 35 0 6 279
1956324N25313 1956 114 NA NA NOT_NAMED 1956-11-21 06:00:00 TS 25.1000 -49.7000 35 hurdat_atl main 1802 1773 O_____________ hurdat_atl AL121956 25.1000 -49.7000 TS 35 0 8 292
1956324N25313 1956 114 NA NA NOT_NAMED 1956-11-21 09:00:00 TS 25.2802 -50.0997 main 1773 1745 P_____________ AL121956 25.2802 -50.0997 TS 32 -1 8 299
1956324N25313 1956 114 NA NA NOT_NAMED 1956-11-21 12:00:00 TS 25.5000 -50.5000 30 hurdat_atl main 1745 O_____________ hurdat_atl AL121956 25.5000 -50.5000 TD 30 -1 8 301

About IBTrACS Database

This database is a web-friendly format of International Best Track Archive for Climate Stewardship (IBTrACS), a global best track data archive curated by NOAA dating back to 1842.

Updated: 2021-12-01